createdAt,value
2019-05-20T13:45:24.876Z,11.7
2019-05-20T15:40:23.104Z,15.8
2019-05-20T15:50:51.690Z,10
2019-05-20T15:55:26.786Z,10.9
2019-05-20T16:00:45.894Z,8.3
2019-05-20T16:06:06.848Z,9.7
2019-05-20T16:10:22.460Z,6.8
2019-05-20T17:45:32.514Z,9.4
2019-05-20T18:40:17.432Z,11.7
2019-05-20T18:55:38.835Z,11.4
2019-05-20T19:00:22.313Z,9.9
2019-05-20T19:05:23.019Z,7.6
2019-05-20T19:20:47.015Z,13.8
2019-05-20T20:00:42.246Z,5.9
2019-05-20T20:05:18.413Z,6.7
2019-05-20T20:10:33.342Z,6.1
2019-05-20T20:15:22.407Z,6
2019-05-20T20:20:40.757Z,5.4
2019-05-20T20:30:32.425Z,3.1
2019-05-20T20:35:46.422Z,6.7
2019-05-20T20:45:25.778Z,3.7
2019-05-20T20:50:17.397Z,3.3
2019-05-20T21:00:25.047Z,5.5
2019-05-20T21:05:32.755Z,2.1
2019-05-20T21:20:23.945Z,4.1
2019-05-20T21:25:22.224Z,7.8
2019-05-20T21:30:45.427Z,3.7
2019-05-20T21:35:46.857Z,5.6
2019-05-20T21:50:21.309Z,5.2
2019-05-20T21:55:20.757Z,2.8
2019-05-20T22:00:17.592Z,2.5
2019-05-20T22:05:25.476Z,3.4
2019-05-20T22:10:17.467Z,3.3
2019-05-20T22:15:24.489Z,2.5
2019-05-20T22:20:23.768Z,1.8
2019-05-20T22:25:27.077Z,2.3
2019-05-20T22:30:32.905Z,4.3
2019-05-20T22:35:36.355Z,4.4
2019-05-20T22:40:17.735Z,5
2019-05-20T22:45:22.337Z,3.2
2019-05-20T22:50:22.624Z,3
2019-05-20T22:55:17.053Z,3.7
2019-05-20T23:00:17.425Z,2.8
2019-05-20T23:05:17.155Z,3.2
2019-05-20T23:10:17.136Z,4.8
2019-05-20T23:15:25.074Z,2.5
2019-05-20T23:30:24.246Z,5
2019-05-20T23:35:48.033Z,4.6
2019-05-20T23:40:32.675Z,4.5
2019-05-20T23:50:36.835Z,4.2
